Time;durP1;ratioP1;P1;durP2;ratioP2;P2;SDS_P1;SDS_P2;PMS_P1;PMS_P2;Temp;Humidity;BMP_temperature;BMP_pressure;BME280_temperature;BME280_humidity;BME280_pressure;Samples;Min_cycle;Max_cycle;Signal;HPM_P1;HPM_P2
2023/06/08 00:00:39;;;;;;;6.30;2.53;;;12.60;99.90;;;;;;5016098;28;20696;-77
2023/06/08 00:03:05;;;;;;;7.50;2.28;;;12.60;99.90;;;;;;5032403;28;20049;-77
2023/06/08 00:05:31;;;;;;;6.57;2.45;;;12.60;99.90;;;;;;5032331;28;20037;-76
2023/06/08 00:07:57;;;;;;;7.10;2.60;;;12.60;99.90;;;;;;5032355;28;20041;-77
2023/06/08 00:10:23;;;;;;;6.10;2.70;;;12.60;99.90;;;;;;5032187;28;20053;-77
2023/06/08 00:12:49;;;;;;;8.45;2.58;;;12.60;99.90;;;;;;5032199;28;20037;-77
2023/06/08 00:15:17;;;;;;;4.82;2.42;;;12.60;99.90;;;;;;5015924;28;20554;-77
2023/06/08 00:17:43;;;;;;;7.90;2.22;;;12.60;99.90;;;;;;5016012;28;20067;-77
2023/06/08 00:20:10;;;;;;;5.35;2.50;;;12.60;99.90;;;;;;5032019;28;20038;-77
2023/06/08 00:22:36;;;;;;;10.57;2.88;;;12.60;99.90;;;;;;5031978;28;20411;-77
2023/06/08 00:25:03;;;;;;;6.35;2.72;;;12.70;99.90;;;;;;5015325;28;20140;-77
2023/06/08 00:27:29;;;;;;;8.80;3.22;;;12.70;99.90;;;;;;5015780;28;20353;-77
2023/06/08 00:29:55;;;;;;;9.10;3.50;;;12.70;99.90;;;;;;5032021;28;20376;-77
2023/06/08 00:32:21;;;;;;;8.75;2.80;;;12.60;99.90;;;;;;5031829;28;20044;-77
2023/06/08 00:34:47;;;;;;;10.18;3.30;;;12.60;99.90;;;;;;5015790;28;20056;-77
2023/06/08 00:37:12;;;;;;;9.50;3.00;;;12.60;99.90;;;;;;5031741;28;20529;-77
2023/06/08 00:39:38;;;;;;;6.85;2.92;;;12.60;99.90;;;;;;5031407;28;20045;-77
2023/06/08 00:42:05;;;;;;;9.45;3.20;;;12.60;99.90;;;;;;5015327;28;20041;-77
2023/06/08 00:44:30;;;;;;;6.47;2.53;;;12.50;99.90;;;;;;5015588;28;20041;-77
2023/06/08 00:46:56;;;;;;;4.10;2.15;;;12.50;99.90;;;;;;5015195;28;20506;-77
2023/06/08 00:49:22;;;;;;;7.25;2.88;;;12.50;99.90;;;;;;5031736;28;20376;-77
2023/06/08 00:51:48;;;;;;;6.40;2.58;;;12.50;99.90;;;;;;5014858;28;20052;-77
2023/06/08 00:54:15;;;;;;;8.35;2.75;;;12.50;99.90;;;;;;5031764;28;20052;-77
2023/06/08 00:56:42;;;;;;;5.70;2.60;;;12.50;99.90;;;;;;5031560;28;20042;-77
2023/06/08 00:59:09;;;;;;;8.38;3.13;;;12.50;99.90;;;;;;5014897;28;20105;-77
2023/06/08 01:01:38;;;;;;;8.18;2.97;;;12.40;99.90;;;;;;5031548;28;20052;-77
2023/06/08 01:04:07;;;;;;;10.27;3.55;;;12.40;99.90;;;;;;5015018;28;20037;-77
2023/06/08 01:06:44;;;;;;;9.95;2.90;;;12.40;99.90;;;;;;5031342;28;20103;-77
2023/06/08 01:09:29;;;;;;;7.07;3.42;;;12.40;99.90;;;;;;5031061;28;20376;-77
2023/06/08 01:12:13;;;;;;;7.55;3.58;;;12.40;99.90;;;;;;5031326;28;20471;-77
2023/06/08 01:14:53;;;;;;;11.70;3.58;;;12.40;99.90;;;;;;5014604;28;20045;-77
2023/06/08 01:17:25;;;;;;;8.20;3.10;;;12.40;99.90;;;;;;5014377;28;20471;-77
2023/06/08 01:20:02;;;;;;;10.50;3.22;;;12.40;99.90;;;;;;5030930;28;20038;-77
2023/06/08 01:22:39;;;;;;;10.02;2.78;;;12.30;99.90;;;;;;5030858;28;20514;-77
2023/06/08 01:25:08;;;;;;;8.38;2.83;;;12.30;99.90;;;;;;5014237;28;20057;-77
2023/06/08 01:27:36;;;;;;;8.02;3.22;;;12.30;99.90;;;;;;5030670;28;20038;-77
2023/06/08 01:30:04;;;;;;;7.57;3.20;;;12.30;99.90;;;;;;5030631;28;20083;-77
2023/06/08 01:32:30;;;;;;;8.00;3.75;;;12.30;99.90;;;;;;5030766;28;20033;-77
2023/06/08 01:34:56;;;;;;;7.68;3.22;;;12.30;99.90;;;;;;5030802;28;20127;-77
2023/06/08 01:37:40;;;;;;;5.45;2.80;;;12.30;99.90;;;;;;5014622;28;20160;-77
2023/06/08 01:40:17;;;;;;;9.70;3.78;;;12.30;99.90;;;;;;5031854;28;20592;-77
2023/06/08 01:42:47;;;;;;;9.00;3.00;;;12.30;99.90;;;;;;5030862;28;20064;-77
2023/06/08 01:45:18;;;;;;;8.45;2.92;;;12.20;99.90;;;;;;5014268;28;20104;-77
2023/06/08 01:47:59;;;;;;;10.50;3.03;;;12.20;99.90;;;;;;5030168;28;20064;-77
2023/06/08 01:50:27;;;;;;;6.45;3.35;;;12.20;99.90;;;;;;5013715;28;20080;-77
2023/06/08 01:52:58;;;;;;;8.43;2.70;;;12.20;99.90;;;;;;5030341;28;20045;-77
2023/06/08 01:55:24;;;;;;;9.43;3.35;;;12.20;99.90;;;;;;5013885;28;20062;-77
2023/06/08 01:57:50;;;;;;;9.27;3.08;;;12.20;99.90;;;;;;5013709;28;20373;-77
2023/06/08 02:00:18;;;;;;;5.97;2.60;;;12.20;99.90;;;;;;5030450;28;20099;-77
2023/06/08 02:02:44;;;;;;;7.97;3.05;;;12.20;99.90;;;;;;5013788;28;20124;-77
2023/06/08 02:05:11;;;;;;;6.57;3.10;;;12.20;99.90;;;;;;5030049;28;20122;-76
2023/06/08 02:07:38;;;;;;;7.65;3.38;;;12.10;99.90;;;;;;5030235;28;20037;-76
2023/06/08 02:10:05;;;;;;;8.43;3.33;;;12.10;99.90;;;;;;5013708;28;20033;-77
2023/06/08 02:12:31;;;;;;;11.23;3.20;;;12.20;99.90;;;;;;5030001;28;20555;-77
2023/06/08 02:14:57;;;;;;;6.70;2.97;;;12.10;99.90;;;;;;5030214;28;20037;-77
2023/06/08 02:17:27;;;;;;;10.35;3.30;;;12.10;99.90;;;;;;5013553;28;20080;-77
2023/06/08 02:19:56;;;;;;;6.90;3.10;;;12.10;99.90;;;;;;5013429;28;20056;-77
2023/06/08 02:22:23;;;;;;;8.25;2.90;;;12.10;99.90;;;;;;5030059;28;20033;-77
2023/06/08 02:24:49;;;;;;;8.27;3.33;;;12.10;99.90;;;;;;5013226;28;20605;-77
2023/06/08 02:27:15;;;;;;;9.55;2.80;;;12.10;99.90;;;;;;5030003;28;20072;-77
2023/06/08 02:29:41;;;;;;;5.85;2.72;;;12.10;99.90;;;;;;5013386;28;20041;-77
2023/06/08 02:32:07;;;;;;;9.80;3.63;;;12.10;99.90;;;;;;5013549;28;20040;-77
2023/06/08 02:34:35;;;;;;;9.43;2.90;;;12.10;99.90;;;;;;5029976;28;20068;-77
2023/06/08 02:37:01;;;;;;;11.00;3.60;;;12.20;99.90;;;;;;5029680;28;20045;-77
2023/06/08 02:39:26;;;;;;;7.70;2.95;;;12.10;99.90;;;;;;5029451;28;20048;-77
2023/06/08 02:41:52;;;;;;;9.23;3.10;;;12.00;99.90;;;;;;5029469;28;20088;-77
2023/06/08 02:44:17;;;;;;;9.57;3.15;;;12.20;99.90;;;;;;5029585;28;20033;-77
2023/06/08 02:46:43;;;;;;;7.38;3.03;;;12.10;99.90;;;;;;5013043;28;20124;-77
2023/06/08 02:49:08;;;;;;;8.93;2.83;;;12.00;99.90;;;;;;5013191;28;20053;-77
2023/06/08 02:51:35;;;;;;;10.43;3.33;;;12.00;99.90;;;;;;5029203;28;20042;-77
2023/06/08 02:54:01;;;;;;;11.23;4.22;;;12.00;99.90;;;;;;5029371;28;20056;-77
2023/06/08 02:56:27;;;;;;;8.77;3.33;;;11.90;99.90;;;;;;5029604;28;20049;-77
2023/06/08 02:58:54;;;;;;;7.72;2.67;;;12.00;99.90;;;;;;5012872;28;20040;-77
2023/06/08 03:01:20;;;;;;;11.75;3.10;;;12.00;99.90;;;;;;5029233;28;20087;-77
2023/06/08 03:03:47;;;;;;;10.40;3.42;;;12.00;99.90;;;;;;5012767;28;20077;-77
2023/06/08 03:06:17;;;;;;;8.38;3.00;;;12.00;99.90;;;;;;5029592;28;20087;-77
2023/06/08 03:08:53;;;;;;;7.88;3.22;;;11.90;99.90;;;;;;5013211;28;20048;-77
2023/06/08 03:11:20;;;;;;;9.30;3.65;;;11.80;99.90;;;;;;5029191;28;20088;-77
2023/06/08 03:13:46;;;;;;;10.40;3.22;;;11.80;99.90;;;;;;5029173;28;20045;-77
2023/06/08 03:16:12;;;;;;;8.13;2.95;;;11.80;99.90;;;;;;5029329;28;20467;-77
2023/06/08 03:18:39;;;;;;;7.65;2.90;;;11.80;99.90;;;;;;5029008;28;20077;-77
2023/06/08 03:21:07;;;;;;;8.98;3.25;;;11.80;99.90;;;;;;5012633;28;20091;-77
2023/06/08 03:23:35;;;;;;;13.07;4.78;;;11.80;99.90;;;;;;5013655;28;20099;-77
2023/06/08 03:26:01;;;;;;;10.90;3.53;;;11.70;99.90;;;;;;5015934;28;20072;-77
2023/06/08 03:28:28;;;;;;;12.30;4.07;;;11.70;99.90;;;;;;5032283;28;20572;-77
2023/06/08 03:30:54;;;;;;;7.72;3.60;;;11.70;99.90;;;;;;5032088;28;20053;-77
2023/06/08 03:33:21;;;;;;;8.63;3.60;;;11.70;99.90;;;;;;5032082;28;20106;-77
2023/06/08 03:35:47;;;;;;;9.52;3.45;;;11.70;99.90;;;;;;5032144;28;20421;-77
2023/06/08 03:38:13;;;;;;;9.32;3.63;;;11.80;99.90;;;;;;5032434;28;20041;-77
2023/06/08 03:40:39;;;;;;;8.13;3.38;;;11.80;99.90;;;;;;5032161;28;20037;-77
2023/06/08 03:43:04;;;;;;;7.13;3.30;;;11.70;99.90;;;;;;5015439;28;20033;-77
2023/06/08 03:45:30;;;;;;;8.07;3.35;;;11.80;99.90;;;;;;5015683;28;20437;-77
2023/06/08 03:47:56;;;;;;;9.68;3.25;;;11.80;99.90;;;;;;5032141;28;20041;-77
2023/06/08 03:50:22;;;;;;;10.98;4.10;;;11.80;99.90;;;;;;5032302;28;20052;-77
2023/06/08 03:52:47;;;;;;;7.97;3.17;;;11.80;99.90;;;;;;5015487;28;20072;-77
2023/06/08 03:55:13;;;;;;;13.32;3.85;;;11.80;99.90;;;;;;5016105;28;20481;-77
2023/06/08 03:57:39;;;;;;;10.07;4.05;;;11.90;99.90;;;;;;5031763;28;20090;-77
2023/06/08 04:00:13;;;;;;;9.23;3.17;;;11.90;99.90;;;;;;5031961;28;20347;-77
2023/06/08 04:02:38;;;;;;;9.93;4.38;;;11.90;99.90;;;;;;5032201;28;20037;-77
2023/06/08 04:05:06;;;;;;;8.45;3.53;;;11.90;99.90;;;;;;5015479;28;20187;-77
2023/06/08 04:07:34;;;;;;;12.50;4.20;;;11.90;99.90;;;;;;5015500;28;20041;-77
2023/06/08 04:10:00;;;;;;;8.57;3.67;;;12.00;99.90;;;;;;5015585;28;20440;-77
2023/06/08 04:12:26;;;;;;;9.25;3.78;;;11.90;99.90;;;;;;5052167;28;20045;-77
2023/06/08 04:14:52;;;;;;;11.05;4.40;;;11.90;99.90;;;;;;5035526;28;20041;-77
2023/06/08 04:17:18;;;;;;;10.50;3.90;;;11.90;99.90;;;;;;5019316;28;20409;-77
2023/06/08 04:19:43;;;;;;;9.93;3.50;;;12.00;99.90;;;;;;5035568;28;20037;-77
2023/06/08 04:22:09;;;;;;;9.27;3.45;;;12.00;99.90;;;;;;5035457;28;20028;-77
2023/06/08 04:24:38;;;;;;;8.30;3.38;;;11.90;99.90;;;;;;5031937;28;20054;-77
2023/06/08 04:27:05;;;;;;;8.10;3.55;;;11.90;99.90;;;;;;5015338;28;20041;-77
2023/06/08 04:29:31;;;;;;;8.45;3.22;;;12.00;99.90;;;;;;5015814;28;20037;-77
2023/06/08 04:31:57;;;;;;;12.00;4.05;;;12.00;99.90;;;;;;5032153;28;20128;-77
2023/06/08 04:34:23;;;;;;;10.10;3.53;;;12.00;99.90;;;;;;5031820;28;20546;-77
2023/06/08 04:36:49;;;;;;;8.45;3.17;;;12.00;99.90;;;;;;5031832;28;20038;-77
2023/06/08 04:39:14;;;;;;;12.52;3.33;;;12.00;99.90;;;;;;5015261;28;20128;-77
2023/06/08 04:41:41;;;;;;;8.85;3.75;;;12.00;99.90;;;;;;5032049;28;20095;-78
2023/06/08 04:44:08;;;;;;;10.55;3.28;;;12.00;99.90;;;;;;5015234;28;20037;-77
2023/06/08 04:46:37;;;;;;;5.95;3.22;;;12.00;99.90;;;;;;5031733;28;20499;-77
2023/06/08 04:49:03;;;;;;;9.73;3.40;;;12.00;99.90;;;;;;5031635;28;20045;-77
2023/06/08 04:51:31;;;;;;;8.65;3.45;;;12.00;99.90;;;;;;5031633;28;20580;-77
2023/06/08 04:54:01;;;;;;;8.70;3.22;;;12.00;99.90;;;;;;5031216;28;20411;-77
2023/06/08 04:56:29;;;;;;;8.60;3.17;;;12.10;99.90;;;;;;5031517;28;20052;-77
2023/06/08 04:58:56;;;;;;;11.68;3.50;;;12.10;99.90;;;;;;5031331;28;20053;-77
2023/06/08 05:01:22;;;;;;;8.13;3.50;;;12.10;99.90;;;;;;5031876;28;20051;-77
2023/06/08 05:03:48;;;;;;;13.02;3.92;;;12.10;99.90;;;;;;5014770;28;20043;-77
2023/06/08 05:06:13;;;;;;;8.90;3.90;;;12.10;99.90;;;;;;5031467;28;20037;-77
2023/06/08 05:08:39;;;;;;;11.65;4.25;;;12.20;99.90;;;;;;5031198;28;20088;-77
2023/06/08 05:11:05;;;;;;;9.60;3.58;;;12.20;99.90;;;;;;5031536;28;20291;-77
2023/06/08 05:13:30;;;;;;;6.90;3.55;;;12.20;99.90;;;;;;5014687;28;20487;-76
2023/06/08 05:15:58;;;;;;;11.25;3.67;;;12.30;99.90;;;;;;5031060;28;20037;-77
2023/06/08 05:18:25;;;;;;;11.27;3.83;;;12.30;99.90;;;;;;5031355;28;20499;-77
2023/06/08 05:20:51;;;;;;;7.05;3.35;;;12.30;99.90;;;;;;5014768;28;20411;-77
2023/06/08 05:23:16;;;;;;;8.32;3.75;;;12.40;99.90;;;;;;5013409;28;20565;-77
2023/06/08 05:25:42;;;;;;;8.75;4.07;;;12.30;99.90;;;;;;5030941;28;20053;-77
2023/06/08 05:28:08;;;;;;;9.05;3.67;;;12.40;99.90;;;;;;5014525;28;20045;-77
2023/06/08 05:30:33;;;;;;;12.60;3.95;;;12.40;99.90;;;;;;5030884;28;20277;-77
2023/06/08 05:33:02;;;;;;;8.07;3.75;;;12.40;99.90;;;;;;5030752;28;20124;-77
2023/06/08 05:35:28;;;;;;;13.05;4.32;;;12.40;99.90;;;;;;5014069;28;20037;-77
2023/06/08 05:37:54;;;;;;;12.00;3.97;;;12.40;99.90;;;;;;5030371;28;20052;-77
2023/06/08 05:40:20;;;;;;;10.25;3.88;;;12.50;99.90;;;;;;5030891;28;20026;-77
2023/06/08 05:42:45;;;;;;;9.63;3.45;;;12.60;99.90;;;;;;5014104;28;20037;-77
2023/06/08 05:45:12;;;;;;;8.65;3.50;;;12.50;99.90;;;;;;5030665;28;20041;-77
2023/06/08 05:47:38;;;;;;;10.57;3.10;;;12.60;99.90;;;;;;5014371;28;20033;-76
2023/06/08 05:50:04;;;;;;;9.48;3.25;;;12.60;99.90;;;;;;5030765;28;20548;-77
2023/06/08 05:52:31;;;;;;;7.65;3.28;;;12.60;99.90;;;;;;5013657;28;20475;-77
2023/06/08 05:54:57;;;;;;;8.60;3.33;;;12.70;99.90;;;;;;5013808;28;20120;-77
2023/06/08 05:57:23;;;;;;;7.95;3.25;;;12.70;99.90;;;;;;5030409;28;20506;-77
2023/06/08 05:59:48;;;;;;;10.98;3.00;;;12.70;99.90;;;;;;5013676;28;20073;-77
2023/06/08 06:02:14;;;;;;;7.30;2.83;;;12.70;99.90;;;;;;5030923;28;20087;-77
2023/06/08 06:04:40;;;;;;;11.18;3.85;;;12.70;99.90;;;;;;5013483;28;20041;-77
2023/06/08 06:07:07;;;;;;;6.15;2.75;;;12.70;99.90;;;;;;5030217;28;20392;-77
2023/06/08 06:09:33;;;;;;;7.50;2.90;;;12.70;99.90;;;;;;5030092;28;20044;-77
2023/06/08 06:11:59;;;;;;;9.05;3.08;;;12.70;99.90;;;;;;5030086;28;20076;-77
2023/06/08 06:14:24;;;;;;;7.05;3.00;;;12.80;99.90;;;;;;5029842;28;20088;-77
2023/06/08 06:16:50;;;;;;;7.07;2.78;;;12.80;99.90;;;;;;5030073;28;20073;-77
2023/06/08 06:19:16;;;;;;;6.90;3.08;;;12.90;99.90;;;;;;5029781;28;20406;-77
2023/06/08 06:21:41;;;;;;;11.10;3.50;;;12.90;99.90;;;;;;5030136;28;20033;-77
2023/06/08 06:24:07;;;;;;;8.32;3.22;;;13.00;99.90;;;;;;5029404;28;20095;-76
2023/06/08 06:26:33;;;;;;;9.27;3.00;;;13.00;99.90;;;;;;5013367;28;20091;-76
2023/06/08 06:28:58;;;;;;;10.75;2.90;;;12.90;99.90;;;;;;5013586;28;20045;-77
2023/06/08 06:31:24;;;;;;;10.38;3.63;;;13.00;99.90;;;;;;5029830;28;20418;-76
2023/06/08 06:33:50;;;;;;;6.93;3.10;;;13.60;99.90;;;;;;5029362;28;20037;-77
2023/06/08 06:36:16;;;;;;;8.98;3.03;;;14.50;99.90;;;;;;5029460;28;20095;-77
2023/06/08 06:38:41;;;;;;;5.53;2.55;;;15.40;99.90;;;;;;5029675;28;20037;-77
2023/06/08 06:41:07;;;;;;;6.97;2.88;;;16.20;99.90;;;;;;5013452;28;20084;-77
2023/06/08 06:43:33;;;;;;;9.00;3.22;;;16.80;99.70;;;;;;5013062;28;20038;-77
2023/06/08 06:45:58;;;;;;;6.05;2.65;;;17.40;99.00;;;;;;5029338;28;20080;-77
2023/06/08 06:48:24;;;;;;;8.70;3.40;;;17.80;98.20;;;;;;5013148;28;20099;-77
2023/06/08 06:50:50;;;;;;;6.05;3.00;;;18.00;97.50;;;;;;5029222;28;20052;-77
2023/06/08 06:53:16;;;;;;;4.95;2.55;;;17.70;97.90;;;;;;5013033;28;20140;-77
2023/06/08 06:55:41;;;;;;;7.45;2.72;;;17.20;98.70;;;;;;5012940;28;20411;-77
2023/06/08 06:58:08;;;;;;;10.32;4.03;;;16.80;99.50;;;;;;5012865;28;20044;-77
2023/06/08 07:00:37;;;;;;;6.47;3.00;;;16.50;99.80;;;;;;5012778;28;20487;-77
2023/06/08 07:03:07;;;;;;;8.38;3.25;;;16.20;99.90;;;;;;5012862;28;20037;-76
2023/06/08 07:05:33;;;;;;;9.50;3.10;;;15.90;99.90;;;;;;5012758;28;20038;-77
2023/06/08 07:07:59;;;;;;;7.20;3.17;;;15.70;99.90;;;;;;5012854;28;20037;-77
2023/06/08 07:10:25;;;;;;;7.03;2.72;;;15.50;99.90;;;;;;5029212;28;20087;-77
2023/06/08 07:12:50;;;;;;;8.35;2.97;;;15.50;99.90;;;;;;5029241;28;20053;-77
2023/06/08 07:15:17;;;;;;;7.43;2.90;;;15.40;99.90;;;;;;5029144;28;20037;-77
2023/06/08 07:17:44;;;;;;;7.57;3.30;;;15.20;99.90;;;;;;5012699;28;20044;-77
2023/06/08 07:20:10;;;;;;;9.10;3.15;;;15.10;99.90;;;;;;5029097;28;20046;-77
2023/06/08 07:22:36;;;;;;;8.23;3.40;;;15.10;99.90;;;;;;5029113;28;20128;-77
2023/06/08 07:25:02;;;;;;;10.35;3.50;;;15.00;99.90;;;;;;5028804;28;20396;-77
2023/06/08 07:27:28;;;;;;;7.95;3.33;;;14.90;99.90;;;;;;5029011;28;20045;-77
2023/06/08 07:29:55;;;;;;;9.88;3.78;;;14.90;99.90;;;;;;5012251;28;20055;-77
2023/06/08 07:32:21;;;;;;;6.68;3.30;;;14.90;99.90;;;;;;5012509;28;20091;-77
2023/06/08 07:34:47;;;;;;;7.82;2.97;;;14.90;99.90;;;;;;5028811;28;20407;-76
2023/06/08 07:37:13;;;;;;;10.25;3.15;;;14.90;99.90;;;;;;5029156;28;20080;-77
2023/06/08 07:39:38;;;;;;;7.57;3.00;;;14.90;99.90;;;;;;5028955;28;20037;-77
2023/06/08 07:42:05;;;;;;;8.52;3.00;;;14.90;99.90;;;;;;5012692;28;20044;-77
2023/06/08 07:44:31;;;;;;;9.05;2.97;;;14.90;99.90;;;;;;5012399;28;20045;-77
2023/06/08 07:46:57;;;;;;;8.80;2.50;;;14.90;99.90;;;;;;5030500;28;20134;-77
2023/06/08 07:49:23;;;;;;;6.43;2.67;;;14.90;99.90;;;;;;5016288;28;20403;-77
2023/06/08 07:51:50;;;;;;;8.25;2.70;;;15.00;99.90;;;;;;5032602;28;20052;-77
2023/06/08 07:54:19;;;;;;;10.15;3.35;;;15.00;99.90;;;;;;5016478;28;20041;-77
2023/06/08 07:56:49;;;;;;;7.53;2.65;;;15.00;99.90;;;;;;5032622;28;20087;-77
2023/06/08 07:59:15;;;;;;;13.95;2.78;;;15.00;99.90;;;;;;5016255;28;20499;-77
2023/06/08 08:01:42;;;;;;;9.57;3.30;;;15.00;99.90;;;;;;5016042;28;20045;-77
2023/06/08 08:04:08;;;;;;;8.25;3.17;;;15.00;99.90;;;;;;5032702;28;20037;-77
2023/06/08 08:06:34;;;;;;;9.77;2.80;;;15.00;99.90;;;;;;5015889;28;20490;-77
2023/06/08 08:09:00;;;;;;;7.28;2.45;;;15.10;99.90;;;;;;5015939;28;20124;-77
2023/06/08 08:11:26;;;;;;;5.80;2.63;;;15.10;99.90;;;;;;5016173;28;20152;-77
2023/06/08 08:13:52;;;;;;;6.38;2.47;;;15.10;99.90;;;;;;5032286;28;20041;-77
2023/06/08 08:16:18;;;;;;;5.35;2.38;;;15.20;99.90;;;;;;5032298;28;20095;-77
2023/06/08 08:18:44;;;;;;;6.22;2.45;;;15.20;99.90;;;;;;5032148;28;20049;-78
2023/06/08 08:21:10;;;;;;;12.02;2.58;;;15.30;99.90;;;;;;5032389;28;20128;-78
2023/06/08 08:23:36;;;;;;;8.23;2.25;;;15.30;99.90;;;;;;5016725;28;20414;-78
2023/06/08 08:26:02;;;;;;;5.32;2.30;;;15.30;99.90;;;;;;5035294;28;20045;-78
2023/06/08 08:28:28;;;;;;;7.03;2.00;;;15.20;99.90;;;;;;5019240;28;20410;-78
2023/06/08 08:30:54;;;;;;;6.65;2.20;;;15.30;99.90;;;;;;5035045;28;20500;-77
2023/06/08 08:33:19;;;;;;;6.93;2.08;;;15.40;99.90;;;;;;5018766;28;20041;-77
2023/06/08 08:35:45;;;;;;;8.15;2.30;;;15.40;99.90;;;;;;5018535;28;20041;-77
2023/06/08 08:38:11;;;;;;;8.25;2.25;;;15.60;99.90;;;;;;5035216;28;20075;-77
2023/06/08 08:40:37;;;;;;;6.95;2.33;;;15.70;99.90;;;;;;5035271;28;20128;-77
2023/06/08 08:43:12;;;;;;;5.03;1.90;;;15.70;99.90;;;;;;5018766;28;20471;-77
2023/06/08 08:45:41;;;;;;;4.60;1.58;;;15.80;99.90;;;;;;5035014;28;20040;-77
2023/06/08 08:48:10;;;;;;;4.97;2.20;;;15.90;99.90;;;;;;5034982;28;20052;-77
2023/06/08 08:50:38;;;;;;;7.15;2.55;;;15.90;99.90;;;;;;5034985;28;20052;-77
2023/06/08 08:53:06;;;;;;;5.50;1.67;;;15.90;99.90;;;;;;5034935;28;20044;-78
2023/06/08 08:55:33;;;;;;;7.47;2.00;;;16.00;99.90;;;;;;5018390;28;20052;-77
2023/06/08 08:58:00;;;;;;;4.30;1.60;;;16.00;99.90;;;;;;5017886;28;20621;-77
2023/06/08 09:00:27;;;;;;;7.15;2.13;;;16.00;99.90;;;;;;5018486;28;20033;-77
2023/06/08 09:02:53;;;;;;;8.40;1.88;;;16.10;99.90;;;;;;5018124;28;20124;-77
2023/06/08 09:05:19;;;;;;;7.30;1.92;;;16.10;99.90;;;;;;5034626;28;20124;-77
2023/06/08 09:07:45;;;;;;;4.65;1.70;;;16.20;99.90;;;;;;5034644;28;20044;-77
2023/06/08 09:10:22;;;;;;;6.28;1.90;;;16.20;99.90;;;;;;5018287;28;20037;-77
2023/06/08 09:12:53;;;;;;;8.00;2.17;;;16.30;99.90;;;;;;5034727;28;20105;-77
2023/06/08 09:15:34;;;;;;;5.10;1.80;;;16.40;99.90;;;;;;5034565;28;20037;-77
2023/06/08 09:18:20;;;;;;;3.78;1.83;;;16.40;99.90;;;;;;5017586;28;20033;-76
2023/06/08 09:20:46;;;;;;;;;;;16.50;99.60;;;;;;5018111;28;20380;-77
2023/06/08 09:23:26;;;;;;;4.80;1.88;;;16.40;99.00;;;;;;5034313;28;20063;-77
2023/06/08 09:25:53;;;;;;;5.30;2.00;;;16.50;99.80;;;;;;5017625;28;20051;-77
2023/06/08 09:28:28;;;;;;;6.57;2.20;;;16.50;99.80;;;;;;5017928;28;20170;-77
2023/06/08 09:30:56;;;;;;;7.68;2.20;;;16.50;99.60;;;;;;5034035;28;20037;-77
2023/06/08 09:33:24;;;;;;;10.73;2.10;;;16.60;99.80;;;;;;5034375;28;20040;-78
2023/06/08 09:35:59;;;;;;;6.45;2.03;;;16.70;99.80;;;;;;5034121;28;20047;-77
2023/06/08 09:38:29;;;;;;;8.27;2.63;;;16.70;99.60;;;;;;5017829;28;20383;-78
2023/06/08 09:41:22;;;;;;;14.25;2.30;;;16.70;99.50;;;;;;5033930;28;20152;-77
2023/06/08 09:43:49;;;;;;;6.40;2.22;;;16.80;99.30;;;;;;5017195;28;20048;-77
2023/06/08 09:46:46;;;;;;;8.90;2.63;;;16.80;99.40;;;;;;5017464;28;20029;-78
2023/06/08 09:49:13;;;;;;;8.48;2.22;;;16.90;99.10;;;;;;5017552;28;20510;-78
2023/06/08 09:52:01;;;;;;;9.13;2.50;;;16.90;99.30;;;;;;5033862;28;20494;-78
2023/06/08 09:54:27;;;;;;;8.23;2.20;;;17.00;99.10;;;;;;5033687;28;20081;-77
2023/06/08 09:56:57;;;;;;;4.95;2.15;;;17.00;99.20;;;;;;5033420;28;20478;-78
2023/06/08 09:59:31;;;;;;;10.50;2.53;;;17.00;99.00;;;;;;5033525;28;20436;-77
2023/06/08 10:02:16;;;;;;;6.90;2.05;;;17.00;98.80;;;;;;5017200;28;20040;-77
2023/06/08 10:04:48;;;;;;;5.32;1.88;;;17.10;98.60;;;;;;5033530;28;20490;-77
2023/06/08 10:07:19;;;;;;;6.22;2.08;;;17.10;98.80;;;;;;5017062;28;20041;-78
2023/06/08 10:09:47;;;;;;;9.88;2.35;;;17.20;98.80;;;;;;5033072;28;20095;-78
2023/06/08 10:12:13;;;;;;;5.97;2.00;;;17.30;98.60;;;;;;5033552;28;20127;-78
2023/06/08 10:14:40;;;;;;;6.47;2.80;;;17.20;98.60;;;;;;5033313;28;20476;-77
2023/06/08 10:17:07;;;;;;;7.45;2.40;;;17.30;98.50;;;;;;5016517;28;20448;-78
2023/06/08 10:19:35;;;;;;;6.70;2.17;;;17.40;98.60;;;;;;5016772;28;20143;-78
2023/06/08 10:22:02;;;;;;;4.97;2.10;;;17.40;98.40;;;;;;5033434;28;20037;-78
2023/06/08 10:24:30;;;;;;;3.55;1.88;;;17.40;98.20;;;;;;5032893;28;20056;-78
2023/06/08 10:27:10;;;;;;;5.55;2.17;;;17.50;98.10;;;;;;5033200;28;20394;-78
2023/06/08 10:29:36;;;;;;;5.25;2.05;;;17.60;97.70;;;;;;5016333;28;20037;-78
2023/06/08 10:32:09;;;;;;;6.95;2.38;;;17.70;98.00;;;;;;5032869;28;20041;-78
2023/06/08 10:34:42;;;;;;;6.28;2.20;;;17.70;97.90;;;;;;5032937;28;20051;-77
2023/06/08 10:37:26;;;;;;;7.25;2.00;;;17.70;97.90;;;;;;5032793;28;20044;-78
2023/06/08 10:39:52;;;;;;;4.88;1.77;;;17.70;97.80;;;;;;5016302;28;20044;-77
2023/06/08 10:42:20;;;;;;;9.60;2.30;;;17.90;97.90;;;;;;5032747;28;20052;-78
2023/06/08 10:45:02;;;;;;;5.55;2.03;;;17.90;97.90;;;;;;5016253;28;20037;-78
2023/06/08 10:47:31;;;;;;;7.82;2.40;;;18.00;97.50;;;;;;5032853;28;20375;-77
2023/06/08 10:50:00;;;;;;;9.63;2.65;;;18.00;97.50;;;;;;5016053;28;20041;-78
2023/06/08 10:52:26;;;;;;;5.90;2.20;;;18.10;97.30;;;;;;5032553;28;20079;-77
2023/06/08 10:54:58;;;;;;;8.48;2.55;;;18.10;97.20;;;;;;5032537;28;20057;-77
2023/06/08 10:57:43;;;;;;;4.40;1.95;;;18.20;97.30;;;;;;5016084;28;20062;-77
2023/06/08 11:00:29;;;;;;;5.28;2.00;;;18.20;95.50;;;;;;5015955;28;20037;-77
2023/06/08 11:03:05;;;;;;;4.05;1.80;;;18.30;95.70;;;;;;5016004;28;20427;-76
2023/06/08 11:05:33;;;;;;;5.88;2.17;;;18.30;96.30;;;;;;5033193;28;20055;-77
2023/06/08 11:08:00;;;;;;;4.63;1.77;;;18.40;96.50;;;;;;5032247;28;20083;-77
2023/06/08 11:10:26;;;;;;;9.02;2.53;;;18.40;96.50;;;;;;5032457;28;20076;-77
2023/06/08 11:12:53;;;;;;;4.60;1.90;;;18.50;96.10;;;;;;5032705;28;20036;-77
2023/06/08 11:15:18;;;;;;;5.43;2.10;;;18.60;96.10;;;;;;5032551;28;20083;-77
2023/06/08 11:17:53;;;;;;;4.57;1.80;;;18.60;96.00;;;;;;5015966;28;20045;-77
2023/06/08 11:20:26;;;;;;;6.30;2.20;;;18.60;95.60;;;;;;5032735;28;20114;-77
2023/06/08 11:22:52;;;;;;;4.47;2.10;;;18.70;95.50;;;;;;5019490;28;20276;-77
2023/06/08 11:25:25;;;;;;;5.35;1.77;;;18.70;95.60;;;;;;5036337;28;20168;-77
2023/06/08 11:27:53;;;;;;;6.43;1.98;;;18.80;95.20;;;;;;5036792;28;20386;-77
2023/06/08 11:30:25;;;;;;;5.32;1.80;;;18.80;95.70;;;;;;5036398;28;20056;-77
2023/06/08 11:32:51;;;;;;;4.13;1.75;;;18.90;95.40;;;;;;5036454;28;20132;-77
2023/06/08 11:35:21;;;;;;;7.65;2.45;;;18.80;95.20;;;;;;5020064;28;20457;-77
2023/06/08 11:37:51;;;;;;;6.63;2.47;;;18.90;95.40;;;;;;5019752;28;20041;-76
2023/06/08 11:40:17;;;;;;;5.70;1.75;;;18.90;95.20;;;;;;5036020;28;20502;-76
2023/06/08 11:42:44;;;;;;;5.35;1.75;;;19.00;95.10;;;;;;5036562;28;20402;-77
2023/06/08 11:45:12;;;;;;;5.50;1.70;;;19.00;94.80;;;;;;5036285;28;20508;-77
2023/06/08 11:47:41;;;;;;;9.05;1.90;;;19.00;95.00;;;;;;5019637;28;20032;-77
2023/06/08 11:50:07;;;;;;;7.07;2.60;;;19.00;95.10;;;;;;5035874;28;20170;-77
2023/06/08 11:52:34;;;;;;;6.93;1.85;;;19.10;95.10;;;;;;5019715;28;20048;-77
2023/06/08 11:55:15;;;;;;;5.60;1.70;;;19.20;94.90;;;;;;5035822;28;20064;-78
2023/06/08 11:57:55;;;;;;;5.50;1.95;;;19.20;94.70;;;;;;5019643;28;20040;-76
2023/06/08 12:00:27;;;;;;;4.28;2.00;;;19.30;94.50;;;;;;5035983;28;20128;-77
2023/06/08 12:02:55;;;;;;;5.32;1.83;;;19.30;94.60;;;;;;5036250;28;20032;-77
2023/06/08 12:05:30;;;;;;;4.80;2.20;;;19.30;94.60;;;;;;5019626;28;20045;-77
2023/06/08 12:08:04;;;;;;;7.72;2.10;;;19.40;94.10;;;;;;5019318;28;20040;-78
2023/06/08 12:10:37;;;;;;;6.97;2.20;;;19.50;94.10;;;;;;5036306;28;20411;-77
2023/06/08 12:13:06;;;;;;;4.60;1.92;;;19.50;94.00;;;;;;5035940;28;20191;-77
2023/06/08 12:15:39;;;;;;;6.45;2.05;;;19.50;94.00;;;;;;5035684;28;20060;-77
2023/06/08 12:18:05;;;;;;;5.15;2.17;;;19.60;94.00;;;;;;5035216;28;20041;-77
2023/06/08 12:20:33;;;;;;;3.28;1.58;;;19.60;94.20;;;;;;5035375;28;20041;-77
2023/06/08 12:22:58;;;;;;;4.80;1.67;;;19.70;93.30;;;;;;5018772;28;20078;-78
2023/06/08 12:25:24;;;;;;;4.35;1.75;;;19.60;93.20;;;;;;5035231;28;20527;-76
2023/06/08 12:27:50;;;;;;;5.78;1.98;;;19.60;93.40;;;;;;5035782;28;20128;-77
2023/06/08 12:30:16;;;;;;;5.03;1.95;;;19.60;93.60;;;;;;5035111;28;20515;-78
2023/06/08 12:32:42;;;;;;;7.88;2.00;;;19.70;93.30;;;;;;5034932;28;20045;-77
2023/06/08 12:35:08;;;;;;;3.63;1.95;;;19.70;93.40;;;;;;5018955;28;20044;-77
2023/06/08 12:37:34;;;;;;;5.65;2.20;;;19.80;93.20;;;;;;5035229;28;20561;-77
2023/06/08 12:40:00;;;;;;;9.25;2.42;;;19.80;93.10;;;;;;5018572;28;20056;-77
2023/06/08 12:42:26;;;;;;;9.25;2.30;;;19.90;93.20;;;;;;5018548;28;20063;-78
2023/06/08 12:44:53;;;;;;;5.38;2.25;;;19.90;93.10;;;;;;5018538;28;20037;-77
2023/06/08 12:47:19;;;;;;;5.50;2.35;;;19.90;93.10;;;;;;5034802;28;20498;-77
2023/06/08 12:49:45;;;;;;;3.85;1.30;;;19.90;93.20;;;;;;5018656;28;20083;-77